Findlay, IL (62534)

10:49 AM CST on February 08, 2016 (GMT -0600)
Dougup farms inc | | Change Station
CLOSE
Current Station
Personal Weather Station
Location: Findlay, IL
Elevation: 653 ft
Nearby Weather Stations
Active Advisory: Special Statement

Elev 653 ft 39.48 °N, 88.77 °W | Updated 10 minutes ago

Overcast
Overcast
25.0 °F
Feels Like 12 °F
N
17.1
Wind Variable Wind from WNW

Today
High -- | Low -- °F
--% Chance of Precip.
Yesterday
High -- | Low -- °F
Precip. -- in
Pressure 29.78 in
Visibility 3.0 miles
Clouds Mostly Cloudy 1400 ft
Mostly Cloudy 2000 ft
Overcast 2700 ft
Windchill 12 °F
Dew Point 18 °F
Humidity 75%
Rainfall 0.00 in
Snow Depth Not available.
6:55 AM 5:22 PM
New Moon, 0% visible
SPECI KDEC 081647Z 29013KT 3SM -SN BKN014 BKN020 OVC027 M04/M07 A2978 RMK AO2 P0000 T10391072
Pressure 29.78 in
Visibility 3.0 miles
Clouds Mostly Cloudy 1400 ft
Mostly Cloudy 2000 ft
Overcast 2700 ft
Windchill 12 °F
Dew Point 18 °F
Humidity 75%
Rainfall 0.00 in
Snow Depth Not available.
6:55 AM 5:22 PM
New Moon, 0% visible
SPECI KDEC 081647Z 29013KT 3SM -SN BKN014 BKN020 OVC027 M04/M07 A2978 RMK AO2 P0000 T10391072

10-Day Weather Forecast

Almanac

Astronomy

Feb. 08, 2016 Rise Set
Actual Time
Civil Twilight
Nautical Twilight
Astronomical Twilight
Moon
Length of Visible Light
Length of Day
Tomorrow will be .
, % of the Moon is Illuminated

Today's Extremes

State Highs State Lows

Community

WunderPhotos

Upload Photos

1,891,462 photos uploaded!

WunderBlog® & News

Nearby

Air Quality

  Air Quality AQ Index Pollutant
Not available.

Snow Depth

Station Depth Elevation

Earthquake Activity

City Distance Mag. Time & Date
Minimum magnitude displayed is 2.5.

Coastal Water Temperatures

Place Temperature

Stations

Nearby Weather Stations

Station Location Temp. Windchill Dew Point Humidity Wind Precip. Elev Updated Type
                   

Watches & Warnings

Special Statement
Issued: 9:38 AM CST Feb. 8, 2016 – National Weather Service

Scattered snow showers will continue across central and southeast
Illinois through the afternoon. While accumulations will remain
minor... slick spots will develop on many area roadways as
temperatures fall through the 20s. Motorists are advised to drive
with caution. Slow down and plan on extra time to arrive at your
destination today.


Barnes

938 am CST Mon Feb 8 2016

Scattered snow showers will continue across central and southeast
Illinois through the afternoon. While accumulations will remain
minor... slick spots will develop on many area roadways as
temperatures fall through the 20s. Motorists are advised to drive
with caution. Slow down and plan on extra time to arrive at your
destination today.


Barnes